Date,TemperatureHighF,TemperatureAvgF,TemperatureLowF,DewpointHighF,DewpointAvgF,DewpointLowF,HumidityHigh,HumidityAvg,HumidityLow,PressureMaxIn,PressureMinIn,WindSpeedMaxMPH,WindSpeedAvgMPH,GustSpeedMaxMPH,PrecipitationSumIn
2013-1-1,28.6,21.1,9.0,23.0,13.0,2.7,80,71,59,30.11,29.97,5,1,6,0.01
2013-1-2,26.3,20.6,10.4,19.3,14.8,5.1,84,78,72,30.14,30.01,4,1,7,0.00
2013-1-3,29.2,23.6,16.9,25.3,18.5,11.1,87,81,75,30.11,29.99,5,1,8,0.00
2013-1-4,31.0,27.2,23.4,24.3,21.2,18.7,85,78,69,30.13,29.95,7,2,10,0.00
2013-1-5,32.6,25.7,14.6,28.9,21.4,10.9,89,84,76,30.23,29.98,5,1,6,0.00
2013-1-6,36.0,33.3,31.5,32.9,29.6,27.0,90,86,80,30.22,29.87,4,1,6,0.00
2013-1-7,35.6,31.0,27.7,27.5,25.4,23.2,84,80,71,30.33,30.11,6,1,9,0.03
2013-1-8,37.3,28.8,21.1,30.3,24.0,17.6,88,82,75,30.20,30.11,4,1,4,0.01
2013-1-9,45.0,36.5,24.8,34.8,28.2,21.8,90,73,48,30.38,29.99,10,2,11,0.05
2013-1-10,43.6,33.7,22.0,33.7,27.2,17.8,86,78,64,30.54,30.15,5,1,6,0.09
2013-1-11,53.5,42.9,35.1,50.6,40.2,31.4,94,90,86,30.15,29.74,4,1,6,0.55
2013-1-12,57.8,49.5,43.9,51.6,46.3,42.0,94,89,79,29.92,29.81,4,1,5,0.00
2013-1-13,48.2,38.4,30.4,46.6,36.0,27.6,94,91,86,29.99,29.68,7,1,7,0.13
2013-1-14,30.2,24.1,18.4,27.5,18.6,14.2,89,79,71,30.38,30.00,8,2,11,0.00
2013-1-15,31.0,22.8,15.5,23.0,17.6,12.0,89,81,70,30.38,30.10,2,0,3,0.00
2013-1-16,37.1,28.9,20.7,27.8,20.6,17.1,89,72,47,30.10,29.76,5,1,9,0.00
2013-1-17,33.7,29.0,17.6,28.5,21.1,7.7,84,72,59,30.25,29.90,8,2,11,0.00
2013-1-18,33.7,24.1,12.8,24.2,16.0,7.2,82,71,60,30.38,29.93,8,2,11,0.00
2013-1-19,47.0,39.7,32.9,35.5,30.3,24.0,75,69,59,29.93,29.53,8,2,9,0.00
2013-1-20,43.0,22.5,16.0,35.0,11.3,5.8,74,62,47,30.12,29.51,13,4,16,0.00
2013-1-21,18.9,13.3,4.0,12.3,5.0,-4.5,83,69,60,30.09,29.89,6,2,10,0.00
2013-1-22,11.2,4.9,-1.3,0.5,-4.0,-10.4,75,66,55,30.20,30.04,7,2,8,0.00
2013-1-23,18.7,11.3,2.5,11.3,4.5,-3.7,83,74,67,30.21,30.02,5,1,5,0.00
2013-1-24,18.7,12.8,7.7,10.2,4.9,-0.4,85,71,51,30.51,30.05,4,1,6,0.00
2013-1-25,23.9,18.4,13.3,17.1,12.0,5.0,83,76,69,30.44,29.96,4,1,5,0.00
2013-1-26,27.7,20.7,12.2,17.9,13.9,5.6,86,75,58,30.39,29.99,5,1,6,0.00
2013-1-27,30.8,21.0,8.6,26.6,14.8,3.5,90,77,65,30.42,30.09,7,1,7,0.00
2013-1-28,43.9,36.3,29.7,42.6,34.0,26.7,95,91,88,30.12,29.81,5,0,6,0.08
2013-1-29,52.6,39.9,33.3,51.1,38.1,31.0,96,94,91,29.99,29.68,3,1,6,0.39
2013-1-30,49.3,41.3,32.8,47.1,38.3,29.0,92,89,86,29.19,29.11,10,3,10,0.10
2013-1-31,32.8,22.5,16.2,29.0,16.1,11.2,88,76,63,29.82,29.20,9,3,13,0.00